createdAt,value
2022-12-18T00:00:21.742Z,16.60
2022-12-18T00:05:23.516Z,18.23
2022-12-18T00:10:25.323Z,16.45
2022-12-18T00:15:27.084Z,17.45
2022-12-18T00:20:28.901Z,16.88
2022-12-18T00:25:30.648Z,17.58
2022-12-18T00:30:32.444Z,18.13
2022-12-18T00:35:34.455Z,15.98
2022-12-18T00:40:36.287Z,16.67
2022-12-18T00:45:38.282Z,17.13
2022-12-18T00:50:40.129Z,17.25
2022-12-18T00:55:42.458Z,13.60
2022-12-18T01:00:44.728Z,16.75
2022-12-18T01:05:46.569Z,15.75
2022-12-18T01:10:48.464Z,16.77
2022-12-18T01:15:51.529Z,16.65
2022-12-18T01:20:53.288Z,16.35
2022-12-18T01:25:55.043Z,16.75
2022-12-18T01:30:56.780Z,18.25
2022-12-18T01:35:58.543Z,15.75
2022-12-18T01:41:01.994Z,15.65
2022-12-18T01:46:04.269Z,14.85
2022-12-18T01:51:07.279Z,15.38
2022-12-18T01:56:13.272Z,13.82
2022-12-18T02:01:15.393Z,13.52
2022-12-18T02:06:33.224Z,11.88
2022-12-18T02:12:02.988Z,11.75
2022-12-18T02:17:21.987Z,9.15
2022-12-18T02:22:51.764Z,12.68
2022-12-18T02:27:55.602Z,12.13
2022-12-18T02:32:59.873Z,14.30
2022-12-18T02:38:06.827Z,13.73
2022-12-18T02:43:15.302Z,14.18
2022-12-18T02:48:36.012Z,14.43
2022-12-18T02:53:41.107Z,14.82
2022-12-18T02:59:01.818Z,13.35
2022-12-18T03:04:23.614Z,13.73
2022-12-18T03:09:41.667Z,12.57
2022-12-18T03:14:50.875Z,12.20
2022-12-18T03:19:57.112Z,10.60
2022-12-18T03:25:01.670Z,13.68
2022-12-18T03:30:09.960Z,13.30
2022-12-18T03:35:17.901Z,14.07
2022-12-18T03:40:26.347Z,13.88
2022-12-18T03:45:39.052Z,15.70
2022-12-18T03:50:43.634Z,12.85
2022-12-18T03:55:46.554Z,13.57
2022-12-18T04:00:51.668Z,14.68
2022-12-18T04:05:55.521Z,13.77
2022-12-18T04:10:57.334Z,12.73
2022-12-18T04:15:59.156Z,12.10
2022-12-18T04:21:01.047Z,13.70
2022-12-18T04:26:02.851Z,12.55
2022-12-18T04:31:05.044Z,13.63
2022-12-18T04:36:07.231Z,11.38
2022-12-18T04:41:09.146Z,12.20
2022-12-18T04:46:11.190Z,11.63
2022-12-18T04:51:13.196Z,11.05
2022-12-18T04:56:16.591Z,11.73
2022-12-18T05:01:19.469Z,11.73
2022-12-18T05:06:21.366Z,11.98
2022-12-18T05:11:23.352Z,11.40
2022-12-18T05:16:25.344Z,12.52
2022-12-18T05:21:27.220Z,12.77
2022-12-18T05:26:29.022Z,12.90
2022-12-18T05:31:34.579Z,12.73
2022-12-18T05:36:39.405Z,13.15
2022-12-18T05:41:41.245Z,12.90
2022-12-18T05:46:43.471Z,11.07
2022-12-18T05:51:45.386Z,11.60
2022-12-18T05:56:49.071Z,12.60
2022-12-18T06:01:51.131Z,13.15
2022-12-18T06:06:53.040Z,12.85
2022-12-18T06:11:54.799Z,11.55
2022-12-18T06:16:56.676Z,12.57
2022-12-18T06:21:59.927Z,10.85
2022-12-18T06:27:01.738Z,10.82
2022-12-18T06:32:03.800Z,12.43
2022-12-18T06:37:05.655Z,12.32
2022-12-18T06:42:07.438Z,13.27
2022-12-18T06:47:09.267Z,11.90
2022-12-18T06:52:11.084Z,12.38
2022-12-18T06:57:13.081Z,12.68
2022-12-18T07:02:15.518Z,12.20
2022-12-18T07:07:17.604Z,12.00
2022-12-18T07:12:19.616Z,12.57
2022-12-18T07:17:21.379Z,11.48
2022-12-18T07:22:23.173Z,10.48
2022-12-18T07:27:24.955Z,10.98
2022-12-18T07:32:26.838Z,11.07
2022-12-18T07:37:29.161Z,12.77
2022-12-18T07:42:33.783Z,11.32
2022-12-18T07:47:37.280Z,10.95
2022-12-18T07:52:39.003Z,12.40
2022-12-18T07:58:00.906Z,11.32
2022-12-18T08:03:02.854Z,11.55
2022-12-18T08:08:04.777Z,11.57
2022-12-18T08:13:06.932Z,9.77
2022-12-18T08:18:13.925Z,11.27
2022-12-18T08:23:16.108Z,10.65
2022-12-18T08:28:18.077Z,10.02
2022-12-18T08:33:19.854Z,11.88
2022-12-18T08:38:21.913Z,12.02
2022-12-18T08:43:42.380Z,11.02
2022-12-18T08:48:44.742Z,9.82
2022-12-18T08:53:47.017Z,9.88
2022-12-18T08:58:51.783Z,11.10
2022-12-18T09:03:53.727Z,9.38
2022-12-18T09:08:55.568Z,9.80
2022-12-18T09:13:57.824Z,10.63
2022-12-18T09:19:00.906Z,9.10
2022-12-18T09:24:02.887Z,8.80
2022-12-18T09:29:05.480Z,10.05
2022-12-18T09:34:07.615Z,8.95
2022-12-18T09:39:09.546Z,23.77
2022-12-18T09:44:45.386Z,10.98
2022-12-18T09:49:51.811Z,10.15
2022-12-18T09:55:05.962Z,9.38
2022-12-18T10:00:18.476Z,9.23
2022-12-18T10:06:00.416Z,8.77
2022-12-18T10:11:32.070Z,9.73
2022-12-18T10:16:40.924Z,20.40
2022-12-18T10:21:54.657Z,17.33
2022-12-18T10:27:12.330Z,21.77
2022-12-18T10:32:28.984Z,10.98
2022-12-18T10:37:31.192Z,11.43
2022-12-18T10:42:32.955Z,10.23
2022-12-18T10:47:35.407Z,10.35
2022-12-18T10:52:42.058Z,10.75
2022-12-18T10:57:46.986Z,7.93
2022-12-18T11:02:49.101Z,10.50
2022-12-18T11:07:52.563Z,10.90
2022-12-18T11:12:54.438Z,11.25
2022-12-18T11:17:56.475Z,11.23
2022-12-18T11:23:04.544Z,11.13
2022-12-18T11:28:37.907Z,11.35
2022-12-18T11:33:58.466Z,11.10
2022-12-18T11:39:18.466Z,11.45
2022-12-18T11:44:27.854Z,13.38
2022-12-18T11:49:37.163Z,14.45
2022-12-18T11:54:38.974Z,14.38
2022-12-18T12:00:13.379Z,13.93
2022-12-18T12:05:20.804Z,13.13
2022-12-18T12:10:37.944Z,12.02
2022-12-18T12:15:48.421Z,12.95
2022-12-18T12:26:20.189Z,13.45
2022-12-18T12:31:37.014Z,13.82
2022-12-18T12:36:49.918Z,11.93
2022-12-18T12:42:10.933Z,12.90
2022-12-18T12:47:31.555Z,16.00
2022-12-18T12:52:33.315Z,14.60
2022-12-18T12:57:42.508Z,13.50
2022-12-18T13:03:15.240Z,14.15
2022-12-18T13:08:26.544Z,12.80
2022-12-18T13:13:50.548Z,13.02
2022-12-18T13:18:55.365Z,12.35
2022-12-18T13:24:14.907Z,20.60
2022-12-18T13:29:42.972Z,14.00
2022-12-18T13:34:45.248Z,11.57
2022-12-18T13:39:47.092Z,12.52
2022-12-18T13:44:49.309Z,13.75
2022-12-18T13:49:51.816Z,11.48
2022-12-18T13:55:01.416Z,11.88
2022-12-18T14:00:25.712Z,10.97
2022-12-18T14:05:39.494Z,12.18
2022-12-18T14:10:50.046Z,13.68
2022-12-18T14:15:52.740Z,13.80
2022-12-18T14:20:58.382Z,13.02
2022-12-18T14:26:05.765Z,14.65
2022-12-18T14:31:22.289Z,15.73
2022-12-18T14:36:28.756Z,15.50
2022-12-18T14:41:30.711Z,12.88
2022-12-18T14:46:37.918Z,15.10
2022-12-18T14:51:39.867Z,13.65
2022-12-18T14:56:56.172Z,14.38
2022-12-18T15:02:22.971Z,13.52
2022-12-18T15:07:25.134Z,13.15
2022-12-18T15:12:38.762Z,14.43
2022-12-18T15:17:40.593Z,14.35
2022-12-18T15:22:42.840Z,16.52
2022-12-18T15:27:48.304Z,16.10
2022-12-18T15:32:52.106Z,15.43
2022-12-18T15:37:53.915Z,14.90
2022-12-18T15:43:15.159Z,15.18
2022-12-18T15:48:23.165Z,16.15
2022-12-18T15:53:27.514Z,15.02
2022-12-18T15:58:29.259Z,16.00
2022-12-18T16:03:31.266Z,13.93
2022-12-18T16:08:33.272Z,15.27
2022-12-18T16:13:35.050Z,15.50
2022-12-18T16:18:36.895Z,16.38
2022-12-18T16:23:39.092Z,15.77
2022-12-18T16:28:45.256Z,15.98
2022-12-18T16:33:50.040Z,16.55
2022-12-18T16:38:57.778Z,16.00
2022-12-18T16:44:00.737Z,15.50
2022-12-18T16:49:02.562Z,15.95
2022-12-18T16:54:09.651Z,16.13
2022-12-18T16:59:13.358Z,14.52
2022-12-18T17:04:17.108Z,16.00
2022-12-18T17:09:29.239Z,14.98
2022-12-18T17:14:32.245Z,15.43
2022-12-18T17:19:33.984Z,15.48
2022-12-18T17:24:36.371Z,16.23
2022-12-18T17:29:42.480Z,15.75
2022-12-18T17:34:49.060Z,11.65
2022-12-18T17:39:50.837Z,14.93
2022-12-18T17:44:52.670Z,16.63
2022-12-18T17:49:54.644Z,15.25
2022-12-18T17:54:57.359Z,15.55
2022-12-18T17:59:59.140Z,14.68
2022-12-18T18:05:00.877Z,15.40
2022-12-18T18:10:02.725Z,16.08
2022-12-18T18:15:04.865Z,16.05
2022-12-18T18:20:07.853Z,17.15
2022-12-18T18:25:10.364Z,16.08
2022-12-18T18:30:12.781Z,16.50
2022-12-18T18:35:44.673Z,14.70
2022-12-18T18:40:36.313Z,16.40
2022-12-18T18:45:38.158Z,16.50
2022-12-18T18:50:44.016Z,17.30
2022-12-18T18:55:51.699Z,16.60
2022-12-18T19:01:07.551Z,16.73
2022-12-18T19:06:14.182Z,15.55
2022-12-18T19:11:36.622Z,16.58
2022-12-18T19:16:39.339Z,15.43
2022-12-18T19:21:41.723Z,16.63
2022-12-18T19:26:43.857Z,15.45
2022-12-18T19:31:46.050Z,16.15
2022-12-18T19:36:48.224Z,15.77
2022-12-18T19:41:50.166Z,16.05
2022-12-18T19:46:52.065Z,19.30
2022-12-18T19:51:53.841Z,16.85
2022-12-18T19:56:55.593Z,15.38
2022-12-18T20:01:57.502Z,16.75
2022-12-18T20:06:59.417Z,17.42
2022-12-18T20:12:01.424Z,17.23
2022-12-18T20:17:03.549Z,14.95
2022-12-18T20:22:05.667Z,16.75
2022-12-18T20:27:12.485Z,16.33
2022-12-18T20:32:17.132Z,12.60
2022-12-18T20:37:19.047Z,15.68
2022-12-18T20:42:21.193Z,15.93
2022-12-18T20:47:23.165Z,17.17
2022-12-18T20:52:25.150Z,14.82
2022-12-18T20:57:27.159Z,15.73
2022-12-18T21:02:29.080Z,15.50
2022-12-18T21:07:30.986Z,16.35
2022-12-18T21:12:40.533Z,15.45
2022-12-18T21:17:52.658Z,12.15
2022-12-18T21:22:55.001Z,14.70
2022-12-18T21:27:59.500Z,16.15
2022-12-18T21:33:01.618Z,17.42
2022-12-18T21:38:03.863Z,15.85
2022-12-18T21:43:28.601Z,15.80
2022-12-18T21:48:30.345Z,16.02
2022-12-18T21:53:32.094Z,15.93
2022-12-18T21:58:33.836Z,17.10
2022-12-18T22:03:35.707Z,14.23
2022-12-18T22:08:41.603Z,17.20
2022-12-18T22:13:45.585Z,17.73
2022-12-18T22:18:48.023Z,17.88
2022-12-18T22:23:54.627Z,17.50
2022-12-18T22:29:17.460Z,17.25
2022-12-18T22:34:22.755Z,16.73
2022-12-18T22:39:27.420Z,17.08
2022-12-18T22:44:30.361Z,15.38
2022-12-18T22:49:32.156Z,15.68
2022-12-18T22:54:36.213Z,15.05
2022-12-18T22:59:37.997Z,16.27
2022-12-18T23:04:39.831Z,15.52
2022-12-18T23:09:41.599Z,16.65
2022-12-18T23:14:43.354Z,15.43
2022-12-18T23:19:48.980Z,15.38
2022-12-18T23:24:51.462Z,16.02
2022-12-18T23:29:53.269Z,15.88
2022-12-18T23:34:56.959Z,16.77
2022-12-18T23:39:58.873Z,15.32
2022-12-18T23:45:00.740Z,14.18
2022-12-18T23:50:07.284Z,14.90
2022-12-18T23:55:09.314Z,14.23
